Time;durP1;ratioP1;P1;durP2;ratioP2;P2;SDS_P1;SDS_P2;PMS_P1;PMS_P2;Temp;Humidity;BMP_temperature;BMP_pressure;BME280_temperature;BME280_humidity;BME280_pressure;Samples;Min_cycle;Max_cycle;Signal;HPM_P1;HPM_P2
2023/12/21 00:03:13;;;;;;;29.38;4.82;;;10.70;99.90;;;;;;10558146;27;20055;-71
2023/12/21 00:08:15;;;;;;;17.37;4.20;;;10.60;99.90;;;;;;10559954;27;20071;-71
2023/12/21 00:13:18;;;;;;;19.40;4.05;;;10.60;99.90;;;;;;10562816;27;20125;-71
2023/12/21 00:18:20;;;;;;;16.23;3.00;;;10.80;99.90;;;;;;10558499;27;20138;-72
2023/12/21 00:23:22;;;;;;;20.23;2.85;;;10.70;99.90;;;;;;10562134;28;20062;-70
2023/12/21 00:28:26;;;;;;;22.35;4.30;;;10.60;99.90;;;;;;10563726;27;20047;-71
2023/12/21 00:33:28;;;;;;;22.70;3.95;;;10.70;99.90;;;;;;10576703;27;20478;-70
2023/12/21 00:38:30;;;;;;;13.43;2.95;;;10.70;99.90;;;;;;10559995;27;20074;-70
2023/12/21 00:43:33;;;;;;;23.00;4.43;;;10.60;99.90;;;;;;10556540;27;20043;-71
2023/12/21 00:48:36;;;;;;;27.27;3.83;;;10.70;99.90;;;;;;10562158;27;20043;-72
2023/12/21 00:53:38;;;;;;;21.65;4.97;;;10.50;99.90;;;;;;10567900;27;20055;-70
2023/12/21 00:58:41;;;;;;;18.57;4.07;;;10.50;99.90;;;;;;10563649;27;21235;-71
2023/12/21 01:03:43;;;;;;;35.67;5.18;;;10.60;99.90;;;;;;10562005;27;20139;-70
2023/12/21 01:08:46;;;;;;;9.88;2.35;;;10.70;99.90;;;;;;10563892;27;20043;-70
2023/12/21 01:13:49;;;;;;;22.30;4.33;;;10.50;99.90;;;;;;10562709;27;20055;-71
2023/12/21 01:18:51;;;;;;;20.88;4.03;;;10.50;99.90;;;;;;10569421;27;20139;-70
2023/12/21 01:23:54;;;;;;;20.38;3.70;;;10.50;99.90;;;;;;10570128;27;20058;-71
2023/12/21 01:28:57;;;;;;;23.65;5.80;;;10.70;99.90;;;;;;10560632;27;20958;-71
2023/12/21 01:34:01;;;;;;;25.98;4.88;;;10.60;99.90;;;;;;10560726;27;20050;-70
2023/12/21 01:39:03;;;;;;;14.60;3.53;;;10.60;99.90;;;;;;10559959;27;20052;-72
2023/12/21 01:44:07;;;;;;;20.70;3.60;;;10.50;99.90;;;;;;10554422;27;20518;-71
2023/12/21 01:49:09;;;;;;;25.30;4.55;;;10.60;99.90;;;;;;10557273;27;22047;-72
2023/12/21 01:54:12;;;;;;;26.65;4.15;;;10.50;99.90;;;;;;10564775;27;20924;-70
2023/12/21 01:59:16;;;;;;;22.13;4.10;;;10.60;99.90;;;;;;10561656;27;20067;-70
2023/12/21 02:04:18;;;;;;;25.92;5.63;;;10.50;99.90;;;;;;10561980;27;20062;-71
2023/12/21 02:09:20;;;;;;;31.67;4.22;;;10.50;99.90;;;;;;10563444;27;20686;-71
2023/12/21 02:14:24;;;;;;;13.43;2.70;;;10.50;99.90;;;;;;10558403;27;20063;-70
2023/12/21 02:19:26;;;;;;;20.40;4.47;;;10.60;99.90;;;;;;10568223;27;20092;-71
2023/12/21 02:24:30;;;;;;;35.28;5.80;;;10.60;99.90;;;;;;10560454;27;20087;-72
2023/12/21 02:29:32;;;;;;;22.00;3.50;;;10.60;99.90;;;;;;10561629;27;20051;-70
2023/12/21 02:34:34;;;;;;;27.80;6.17;;;10.60;99.90;;;;;;10561307;27;20871;-72
2023/12/21 02:39:38;;;;;;;25.60;3.40;;;10.50;99.90;;;;;;10558620;27;20525;-73
2023/12/21 02:44:40;;;;;;;27.88;3.92;;;10.50;99.90;;;;;;10559302;27;20464;-71
2023/12/21 02:49:43;;;;;;;29.13;4.82;;;10.70;99.90;;;;;;10558097;27;20047;-71
2023/12/21 02:54:46;;;;;;;32.45;5.93;;;10.70;99.90;;;;;;10563735;27;20055;-72
2023/12/21 02:59:49;;;;;;;23.13;4.57;;;10.70;99.90;;;;;;10570667;27;20047;-71
2023/12/21 03:04:51;;;;;;;31.50;5.78;;;10.80;99.90;;;;;;10558290;27;20055;-73
2023/12/21 03:09:55;;;;;;;26.05;6.18;;;10.60;99.90;;;;;;10560931;27;20047;-71
2023/12/21 03:14:57;;;;;;;24.17;4.72;;;10.70;99.90;;;;;;10557358;27;20058;-71
2023/12/21 03:20:01;;;;;;;29.40;4.18;;;10.50;99.90;;;;;;10557587;27;20051;-70
2023/12/21 03:25:05;;;;;;;24.75;2.58;;;10.70;99.90;;;;;;10564378;27;20059;-71
2023/12/21 03:30:08;;;;;;;29.30;4.90;;;10.80;99.90;;;;;;10552199;27;20071;-70
2023/12/21 03:35:10;;;;;;;;;;;10.60;99.90;;;;;;10557655;27;20061;-72
2023/12/21 03:40:18;;;;;;;21.27;4.95;;;10.60;99.90;;;;;;10562156;27;20793;-71
2023/12/21 03:45:20;;;;;;;23.60;3.80;;;10.60;99.90;;;;;;10560922;27;20131;-72
2023/12/21 03:50:22;;;;;;;25.40;4.60;;;10.60;99.90;;;;;;10557091;27;20055;-74
2023/12/21 03:55:26;;;;;;;22.20;4.17;;;10.60;99.90;;;;;;10558656;27;20092;-73
2023/12/21 04:15:36;;;;;;;28.17;4.80;;;10.60;99.90;;;;;;10580648;27;20128;-72
2023/12/21 04:20:39;;;;;;;27.67;4.88;;;10.70;99.90;;;;;;10550361;28;20048;-72
2023/12/21 04:25:41;;;;;;;21.47;4.53;;;10.60;99.90;;;;;;10552997;28;20939;-72
2023/12/21 04:30:44;;;;;;;15.13;2.83;;;10.70;99.90;;;;;;10550996;28;20063;-72
2023/12/21 04:35:47;;;;;;;32.70;5.60;;;10.60;99.90;;;;;;10552948;28;20067;-73
2023/12/21 04:40:49;;;;;;;35.28;6.10;;;10.60;99.90;;;;;;10549671;28;20605;-71
2023/12/21 04:45:52;;;;;;;29.40;5.43;;;10.60;99.90;;;;;;10552670;28;20049;-71
2023/12/21 04:50:54;;;;;;;20.23;4.00;;;10.50;99.90;;;;;;10548610;28;20052;-72
2023/12/21 04:55:57;;;;;;;16.75;2.83;;;10.50;99.90;;;;;;10553248;28;20058;-71
2023/12/21 05:01:00;;;;;;;26.80;4.60;;;10.60;99.90;;;;;;10554565;28;20055;-72
2023/12/21 05:06:03;;;;;;;20.45;3.10;;;10.60;99.90;;;;;;10543518;28;20130;-72
2023/12/21 05:11:05;;;;;;;34.63;5.53;;;10.60;99.90;;;;;;10548985;28;20055;-73
2023/12/21 05:16:09;;;;;;;22.27;3.80;;;10.40;99.90;;;;;;10544023;28;20162;-71
2023/12/21 05:21:11;;;;;;;21.55;3.58;;;10.40;99.90;;;;;;10554419;28;20124;-71
2023/12/21 05:26:14;;;;;;;18.55;3.90;;;10.50;99.90;;;;;;10523061;28;20051;-71
2023/12/21 05:31:24;;;;;;;24.15;4.80;;;10.50;99.90;;;;;;10523967;28;20225;-71
2023/12/21 05:36:26;;;;;;;17.63;3.25;;;10.50;99.90;;;;;;10515157;28;20056;-71
2023/12/21 05:41:28;;;;;;;22.00;3.95;;;10.70;99.90;;;;;;10526867;28;20048;-71
2023/12/21 05:46:32;;;;;;;21.80;2.85;;;10.60;99.90;;;;;;10523361;28;20060;-73
2023/12/21 05:51:34;;;;;;;23.08;4.63;;;10.60;99.90;;;;;;10508722;28;21133;-72
2023/12/21 05:56:36;;;;;;;27.58;4.30;;;10.80;99.90;;;;;;10518315;28;20116;-73
2023/12/21 06:01:41;;;;;;;27.43;4.90;;;10.80;99.90;;;;;;10514546;28;20517;-72
2023/12/21 06:06:46;;;;;;;27.75;4.65;;;10.70;99.90;;;;;;10520151;28;20044;-74
2023/12/21 06:11:48;;;;;;;27.55;5.10;;;10.80;99.90;;;;;;10518668;28;20077;-73
2023/12/21 06:16:52;;;;;;;31.75;2.80;;;10.80;99.90;;;;;;10512466;28;20079;-73
2023/12/21 06:21:54;;;;;;;18.85;4.13;;;10.90;99.90;;;;;;10517855;28;20048;-73
2023/12/21 06:26:56;;;;;;;14.43;2.90;;;10.70;99.90;;;;;;10519061;28;20188;-73
2023/12/21 06:31:59;;;;;;;13.75;2.42;;;10.70;99.90;;;;;;10514989;28;20501;-72
2023/12/21 06:37:03;;;;;;;20.33;3.97;;;10.70;99.90;;;;;;10513226;28;20147;-73
2023/12/21 06:42:05;;;;;;;18.98;3.50;;;10.80;99.90;;;;;;10521579;28;20193;-70
2023/12/21 06:47:09;;;;;;;25.65;4.45;;;10.80;99.90;;;;;;10519868;28;20040;-72
2023/12/21 06:52:11;;;;;;;32.05;5.32;;;10.90;99.90;;;;;;10513597;28;20066;-73
2023/12/21 06:57:15;;;;;;;25.23;4.50;;;10.90;99.90;;;;;;10511695;28;20854;-73
2023/12/21 07:02:19;;;;;;;23.60;4.35;;;10.90;99.90;;;;;;10518549;28;20055;-72
2023/12/21 07:07:21;;;;;;;31.23;7.22;;;10.80;99.90;;;;;;10519580;28;20158;-73
2023/12/21 07:12:24;;;;;;;39.55;5.68;;;10.60;99.90;;;;;;10520763;28;20047;-74
2023/12/21 07:17:27;;;;;;;34.75;6.88;;;10.70;99.90;;;;;;10518263;28;20657;-73
2023/12/21 07:22:29;;;;;;;36.75;4.38;;;10.50;99.90;;;;;;10504886;28;20461;-74
2023/12/21 07:27:32;;;;;;;29.13;4.55;;;10.50;99.90;;;;;;10511713;28;20083;-72
2023/12/21 07:32:35;;;;;;;21.70;4.40;;;10.40;99.90;;;;;;10506628;28;20063;-72
2023/12/21 07:37:37;;;;;;;25.52;5.75;;;10.80;99.90;;;;;;10511100;28;21130;-72
2023/12/21 07:42:39;;;;;;;33.00;5.93;;;10.80;99.90;;;;;;10520625;28;20733;-72
2023/12/21 07:47:43;;;;;;;27.20;5.75;;;10.80;99.90;;;;;;10518662;28;20054;-72
2023/12/21 07:52:45;;;;;;;23.85;4.07;;;10.80;99.90;;;;;;10515497;28;20086;-73
2023/12/21 07:57:47;;;;;;;20.73;4.07;;;11.00;99.90;;;;;;10516261;28;20070;-72
2023/12/21 08:02:50;;;;;;;25.27;5.72;;;11.00;99.90;;;;;;10510381;28;20572;-74
2023/12/21 08:07:53;;;;;;;28.70;5.47;;;10.90;99.90;;;;;;10509023;28;20059;-73
2023/12/21 08:12:55;;;;;;;28.20;5.30;;;11.00;99.90;;;;;;10493028;28;20060;-72
2023/12/21 08:17:59;;;;;;;31.65;5.35;;;11.10;99.90;;;;;;10509684;28;20055;-72
2023/12/21 08:23:03;;;;;;;21.77;4.45;;;11.00;99.90;;;;;;10515773;28;20136;-71
2023/12/21 08:28:06;;;;;;;15.80;4.35;;;11.20;99.90;;;;;;10507823;28;21046;-72
2023/12/21 08:33:09;;;;;;;19.37;4.63;;;11.10;99.90;;;;;;10505647;28;20131;-74
2023/12/21 08:38:11;;;;;;;25.25;5.80;;;11.20;99.90;;;;;;10514812;28;20163;-73
2023/12/21 08:43:14;;;;;;;26.27;5.75;;;11.20;99.90;;;;;;10511097;28;20048;-72
2023/12/21 08:48:17;;;;;;;30.83;5.83;;;11.30;99.90;;;;;;10509628;28;20482;-73
2023/12/21 08:53:20;;;;;;;33.95;5.53;;;11.40;99.90;;;;;;10508963;28;20051;-73
2023/12/21 08:58:21;;;;;;;40.07;6.53;;;11.30;99.90;;;;;;10521752;28;20129;-73
2023/12/21 09:03:25;;;;;;;22.13;4.43;;;11.10;99.90;;;;;;10517117;28;20499;-72
2023/12/21 09:08:27;;;;;;;23.83;6.75;;;11.10;99.90;;;;;;10520723;28;20166;-72
2023/12/21 09:13:30;;;;;;;16.03;2.53;;;11.10;99.90;;;;;;10518575;28;20044;-73
2023/12/21 09:18:33;;;;;;;20.73;4.80;;;11.10;99.90;;;;;;10522192;28;20044;-72
2023/12/21 09:23:35;;;;;;;27.33;5.43;;;11.00;99.90;;;;;;10520886;28;20199;-71
2023/12/21 09:28:39;;;;;;;24.35;4.18;;;11.00;99.90;;;;;;10521397;28;20056;-73
2023/12/21 09:33:43;;;;;;;26.80;4.60;;;11.10;99.90;;;;;;10518780;28;20054;-72
2023/12/21 09:38:46;;;;;;;24.73;4.78;;;11.10;99.90;;;;;;10518059;28;20510;-74
2023/12/21 09:43:51;;;;;;;20.77;3.50;;;11.10;99.90;;;;;;10521526;28;20163;-73
2023/12/21 09:48:59;;;;;;;23.30;4.03;;;11.20;99.90;;;;;;10507768;28;20060;-76
2023/12/21 09:54:04;;;;;;;29.23;5.68;;;11.20;99.90;;;;;;10521415;28;20051;-74
2023/12/21 09:59:07;;;;;;;31.33;7.15;;;11.20;99.90;;;;;;10512156;28;20051;-72
2023/12/21 10:04:11;;;;;;;26.60;4.53;;;11.20;99.90;;;;;;10513033;28;20158;-74
2023/12/21 10:09:15;;;;;;;29.88;6.13;;;11.10;99.90;;;;;;10519030;28;20415;-72
2023/12/21 10:14:19;;;;;;;27.30;6.78;;;11.00;99.90;;;;;;10524828;28;20512;-74
2023/12/21 10:19:22;;;;;;;29.27;6.53;;;11.10;99.90;;;;;;10520696;28;20048;-72
2023/12/21 10:24:26;;;;;;;30.80;6.25;;;11.00;99.90;;;;;;10520887;28;20804;-73
2023/12/21 10:29:28;;;;;;;24.00;5.47;;;11.00;99.90;;;;;;10511656;28;20059;-73
2023/12/21 10:34:32;;;;;;;28.42;4.57;;;11.10;99.90;;;;;;10522313;28;20040;-75
2023/12/21 10:39:34;;;;;;;29.77;5.57;;;11.00;99.90;;;;;;10525528;28;20051;-74
2023/12/21 10:44:36;;;;;;;34.63;5.07;;;11.00;99.90;;;;;;10518841;28;20051;-74
2023/12/21 10:49:43;;;;;;;24.77;4.53;;;11.00;99.90;;;;;;10518683;28;20056;-75
2023/12/21 10:54:46;;;;;;;26.48;5.28;;;11.10;99.90;;;;;;10518474;28;20048;-73
2023/12/21 10:59:48;;;;;;;;;;;11.20;99.90;;;;;;10520885;28;20499;-76
2023/12/21 11:04:52;;;;;;;26.02;4.85;;;11.20;99.90;;;;;;10508701;28;19920;-71
2023/12/21 11:09:58;;;;;;;27.00;5.60;;;11.20;99.90;;;;;;10506637;28;20112;-70
2023/12/21 11:15:03;;;;;;;27.63;6.38;;;11.20;99.90;;;;;;10507688;28;20054;-71
2023/12/21 11:20:09;;;;;;;22.92;4.15;;;11.30;99.90;;;;;;10511379;28;20043;-71
2023/12/21 11:25:13;;;;;;;22.42;5.40;;;11.40;99.90;;;;;;10505797;28;20060;-73
2023/12/21 11:30:15;;;;;;;18.80;4.07;;;11.40;99.90;;;;;;10502908;28;20185;-75
2023/12/21 11:35:24;;;;;;;16.77;3.10;;;11.50;99.90;;;;;;10508195;28;20415;-73
2023/12/21 11:40:27;;;;;;;19.63;3.80;;;11.40;99.90;;;;;;10501594;28;20060;-74
2023/12/21 11:45:30;;;;;;;25.80;4.97;;;11.50;99.90;;;;;;10503086;28;20040;-73
2023/12/21 11:50:34;;;;;;;17.77;4.32;;;11.50;99.90;;;;;;10502914;28;20454;-71
2023/12/21 11:55:41;;;;;;;17.73;3.65;;;11.60;99.90;;;;;;10504927;28;20063;-73
2023/12/21 12:00:46;;;;;;;29.05;5.00;;;11.70;99.90;;;;;;10502214;28;20721;-73
2023/12/21 12:05:53;;;;;;;22.83;5.97;;;11.80;99.90;;;;;;10507568;28;20055;-72
2023/12/21 12:10:57;;;;;;;32.10;5.85;;;11.70;99.90;;;;;;10506487;28;20059;-71
2023/12/21 12:15:59;;;;;;;37.33;7.53;;;11.60;99.90;;;;;;10504815;28;20585;-71
2023/12/21 12:21:03;;;;;;;26.23;5.47;;;11.60;99.90;;;;;;10504545;28;20048;-69
2023/12/21 12:26:05;;;;;;;26.63;5.80;;;11.70;99.90;;;;;;10506297;28;20070;-71
2023/12/21 12:31:07;;;;;;;29.98;4.53;;;11.70;99.90;;;;;;10498184;28;20077;-70
2023/12/21 12:36:11;;;;;;;22.48;5.03;;;11.70;99.90;;;;;;10510800;28;21464;-74
2023/12/21 12:41:18;;;;;;;26.63;6.50;;;11.70;99.90;;;;;;10526391;28;20047;-74
2023/12/21 12:46:21;;;;;;;30.92;5.15;;;11.60;99.90;;;;;;10521873;28;20126;-72
2023/12/21 12:51:25;;;;;;;30.35;4.55;;;11.80;99.90;;;;;;10519289;28;20052;-73
2023/12/21 12:56:27;;;;;;;27.95;5.78;;;11.80;99.90;;;;;;10529111;28;20052;-71
2023/12/21 13:01:29;;;;;;;27.63;6.72;;;11.80;99.90;;;;;;10541587;28;20106;-72
2023/12/21 13:06:34;;;;;;;32.88;6.10;;;11.90;99.90;;;;;;10526498;28;20558;-74
2023/12/21 13:11:36;;;;;;;28.02;5.75;;;11.90;99.90;;;;;;10527116;28;20079;-72
2023/12/21 13:16:39;;;;;;;31.20;6.90;;;12.10;99.90;;;;;;10521648;28;20044;-72
2023/12/21 13:21:43;;;;;;;38.42;5.18;;;12.20;99.90;;;;;;10528318;28;20056;-71
2023/12/21 13:26:46;;;;;;;31.70;4.88;;;12.40;99.90;;;;;;10525228;28;20048;-71
2023/12/21 13:31:49;;;;;;;37.38;9.20;;;12.50;99.90;;;;;;10518360;28;20087;-72
2023/12/21 13:36:53;;;;;;;22.52;4.90;;;12.40;99.90;;;;;;10529509;28;20052;-72
2023/12/21 13:41:55;;;;;;;48.60;4.97;;;12.20;99.90;;;;;;10524072;28;20813;-71
2023/12/21 13:46:58;;;;;;;30.23;5.23;;;12.40;99.90;;;;;;10530041;28;20047;-72
2023/12/21 13:52:02;;;;;;;26.45;5.35;;;12.20;99.90;;;;;;10533469;28;20357;-70
2023/12/21 13:57:04;;;;;;;30.88;5.72;;;12.50;99.90;;;;;;10522390;28;20558;-71
2023/12/21 14:02:07;;;;;;;27.05;4.93;;;12.50;99.90;;;;;;10523366;28;20676;-70
2023/12/21 14:07:11;;;;;;;;;;;12.50;99.90;;;;;;10519731;28;20059;-70
2023/12/21 14:12:13;;;;;;;29.88;4.93;;;12.80;99.90;;;;;;10518075;28;20852;-72
2023/12/21 14:17:15;;;;;;;36.50;8.13;;;12.60;99.90;;;;;;10524766;28;20083;-72
2023/12/21 14:22:19;;;;;;;36.55;6.38;;;12.40;99.90;;;;;;10527373;28;20058;-70
2023/12/21 14:27:22;;;;;;;26.08;4.40;;;12.60;99.90;;;;;;10511649;28;20059;-70
2023/12/21 14:32:24;;;;;;;;;;;12.40;99.90;;;;;;10514567;28;20055;-71
2023/12/21 14:37:28;;;;;;;43.08;7.40;;;12.60;99.90;;;;;;10525121;28;19932;-72
2023/12/21 14:42:30;;;;;;;32.80;6.18;;;12.50;99.90;;;;;;10517906;28;20044;-71
2023/12/21 14:47:32;;;;;;;30.40;6.40;;;12.40;99.90;;;;;;10517600;28;20112;-73
2023/12/21 14:52:36;;;;;;;21.80;4.20;;;12.40;99.90;;;;;;10517248;28;20058;-70
2023/12/21 14:57:41;;;;;;;23.60;4.32;;;12.60;99.90;;;;;;10519488;28;20113;-72
2023/12/21 15:02:43;;;;;;;37.67;6.47;;;12.70;99.90;;;;;;10518109;28;20084;-71
2023/12/21 15:07:48;;;;;;;38.40;5.95;;;12.30;99.90;;;;;;10514092;28;20056;-70
2023/12/21 15:12:50;;;;;;;41.65;7.93;;;12.20;99.90;;;;;;10514774;28;20425;-71
2023/12/21 15:17:52;;;;;;;29.27;6.00;;;12.10;99.90;;;;;;10514983;28;20070;-69
2023/12/21 15:22:56;;;;;;;38.60;9.70;;;12.30;99.90;;;;;;10509098;28;20811;-70
2023/12/21 15:27:58;;;;;;;34.47;5.57;;;11.90;99.90;;;;;;10504052;28;20759;-69
2023/12/21 15:33:01;;;;;;;29.90;5.30;;;12.20;99.90;;;;;;10516432;28;20055;-71
2023/12/21 15:38:05;;;;;;;27.20;6.50;;;12.40;99.90;;;;;;10510823;28;20055;-69
2023/12/21 15:43:08;;;;;;;41.13;7.18;;;12.40;99.90;;;;;;10520375;28;20070;-70
2023/12/21 15:48:10;;;;;;;27.13;4.28;;;12.10;99.90;;;;;;10505693;28;20749;-70
2023/12/21 15:53:14;;;;;;;35.67;6.97;;;12.00;99.90;;;;;;10511667;28;20474;-69
2023/12/21 15:58:17;;;;;;;46.17;6.90;;;12.20;99.90;;;;;;10506634;28;20051;-70
2023/12/21 16:03:19;;;;;;;45.67;7.88;;;11.80;99.90;;;;;;10505350;28;20909;-70
2023/12/21 16:08:23;;;;;;;50.33;7.30;;;11.80;99.90;;;;;;10500733;28;20054;-69
2023/12/21 16:13:25;;;;;;;47.03;8.85;;;11.80;99.90;;;;;;10507087;28;20059;-70
2023/12/21 16:18:28;;;;;;;26.33;5.57;;;11.80;99.90;;;;;;10505828;28;20083;-70
2023/12/21 16:23:33;;;;;;;21.88;3.70;;;11.90;99.90;;;;;;10507615;28;20093;-71
2023/12/21 16:28:37;;;;;;;43.05;7.40;;;12.00;99.90;;;;;;10511546;28;20048;-70
2023/12/21 16:33:39;;;;;;;38.75;8.43;;;11.70;99.90;;;;;;10509016;28;20048;-70
2023/12/21 16:38:42;;;;;;;34.28;6.20;;;11.70;99.90;;;;;;10512612;28;20070;-70
2023/12/21 16:43:46;;;;;;;32.03;6.68;;;11.70;99.90;;;;;;10517797;28;20484;-72
2023/12/21 16:48:48;;;;;;;32.47;5.03;;;11.80;99.90;;;;;;10515658;28;20044;-71
2023/12/21 16:53:51;;;;;;;23.83;3.47;;;11.80;99.90;;;;;;10515147;28;20048;-69
2023/12/21 16:58:53;;;;;;;28.98;4.68;;;11.60;99.90;;;;;;10515270;28;20127;-70
2023/12/21 17:03:55;;;;;;;39.63;5.40;;;11.90;99.90;;;;;;10511589;28;20776;-70
2023/12/21 17:09:00;;;;;;;32.97;6.50;;;11.50;99.90;;;;;;10509175;28;20608;-73
2023/12/21 17:14:02;;;;;;;42.10;7.85;;;11.50;99.90;;;;;;10510059;28;20159;-71
2023/12/21 17:19:04;;;;;;;30.10;9.10;;;11.60;99.90;;;;;;10510473;28;20048;-69
2023/12/21 17:24:09;;;;;;;29.73;5.23;;;11.40;99.90;;;;;;10517982;28;22618;-71
2023/12/21 17:29:12;;;;;;;41.58;6.50;;;11.30;99.90;;;;;;10522105;28;20468;-72
2023/12/21 17:34:14;;;;;;;;;;;11.60;99.90;;;;;;10513466;28;20880;-72
2023/12/21 17:39:20;;;;;;;39.60;6.93;;;11.30;99.90;;;;;;10520068;28;20046;-71
2023/12/21 17:44:22;;;;;;;29.50;5.45;;;11.40;99.90;;;;;;10513345;28;22723;-70
2023/12/21 17:49:24;;;;;;;24.42;6.68;;;11.50;99.90;;;;;;10505354;28;20141;-70
2023/12/21 17:54:28;;;;;;;22.67;4.50;;;11.50;99.90;;;;;;10509502;28;20534;-71
2023/12/21 17:59:30;;;;;;;28.55;5.68;;;11.30;99.90;;;;;;10516373;28;20052;-70
2023/12/21 18:04:32;;;;;;;27.92;5.80;;;11.30;99.90;;;;;;10509533;28;20055;-70
2023/12/21 18:09:36;;;;;;;36.90;6.28;;;11.30;99.90;;;;;;10514941;28;20126;-70
2023/12/21 18:14:39;;;;;;;29.35;5.53;;;11.10;99.90;;;;;;10512022;28;20063;-69
2023/12/21 18:19:41;;;;;;;32.58;6.55;;;11.30;99.90;;;;;;10516196;28;21005;-72
2023/12/21 18:24:47;;;;;;;42.05;5.45;;;10.90;99.90;;;;;;10514611;28;20047;-71
2023/12/21 18:29:50;;;;;;;20.48;3.67;;;10.80;99.90;;;;;;10532475;27;20058;-71
2023/12/21 18:34:53;;;;;;;31.75;6.25;;;10.90;99.90;;;;;;10515705;28;20048;-70
2023/12/21 18:39:57;;;;;;;38.88;7.75;;;10.70;99.90;;;;;;10508556;28;20056;-71
2023/12/21 18:45:02;;;;;;;25.88;4.75;;;10.70;99.90;;;;;;10502298;28;20155;-72
2023/12/21 18:50:04;;;;;;;32.40;5.85;;;10.80;99.90;;;;;;10512035;28;20066;-72
2023/12/21 18:55:09;;;;;;;34.88;5.50;;;10.80;99.90;;;;;;10505473;28;20048;-75
2023/12/21 19:00:12;;;;;;;31.25;6.32;;;10.70;99.90;;;;;;10507667;28;20071;-73
2023/12/21 19:05:14;;;;;;;33.20;6.25;;;10.80;99.90;;;;;;10512071;28;20055;-75
2023/12/21 19:10:21;;;;;;;45.55;9.70;;;10.50;99.90;;;;;;10511841;28;20162;-72
2023/12/21 19:15:23;;;;;;;29.20;5.80;;;10.50;99.90;;;;;;10508077;28;20052;-72
2023/12/21 19:20:25;;;;;;;43.40;8.00;;;10.70;99.90;;;;;;10513103;28;20148;-77
2023/12/21 19:25:29;;;;;;;28.87;4.80;;;10.90;99.90;;;;;;10504548;28;20399;-74
2023/12/21 19:30:32;;;;;;;29.13;5.72;;;11.30;99.90;;;;;;10511987;28;20468;-73
2023/12/21 19:35:34;;;;;;;37.58;8.80;;;10.80;99.90;;;;;;10507119;28;20044;-74
2023/12/21 19:40:37;;;;;;;28.92;4.82;;;10.80;99.90;;;;;;10507305;28;20055;-74
2023/12/21 19:45:40;;;;;;;33.38;5.15;;;10.70;99.90;;;;;;10514757;28;20452;-69
2023/12/21 19:50:44;;;;;;;34.83;4.80;;;9.90;99.90;;;;;;10523737;28;20367;-75
2023/12/21 19:55:47;;;;;;;36.00;5.35;;;10.20;99.90;;;;;;10517351;28;20051;-72
2023/12/21 20:00:51;;;;;;;37.22;4.53;;;10.00;99.90;;;;;;10507411;28;20117;-71
2023/12/21 20:05:56;;;;;;;36.88;6.22;;;9.60;99.90;;;;;;10510554;28;20757;-73
2023/12/21 20:11:00;;;;;;;35.55;5.95;;;9.50;99.90;;;;;;10512972;28;20097;-72
2023/12/21 20:16:04;;;;;;;51.03;5.47;;;9.30;99.90;;;;;;10507495;28;20120;-73
2023/12/21 20:21:07;;;;;;;31.95;5.72;;;9.30;99.90;;;;;;10510325;28;20134;-73
2023/12/21 20:26:11;;;;;;;31.67;4.40;;;10.00;99.90;;;;;;10502660;28;20430;-73
2023/12/21 20:31:16;;;;;;;37.55;5.40;;;9.70;99.90;;;;;;10507630;28;20781;-73
2023/12/21 20:36:18;;;;;;;40.97;6.30;;;9.40;99.90;;;;;;10504353;28;20726;-72
2023/12/21 20:41:22;;;;;;;29.10;5.93;;;9.50;99.90;;;;;;10508086;28;20212;-73
2023/12/21 20:46:26;;;;;;;38.88;7.75;;;10.20;99.90;;;;;;10505277;28;20160;-74
2023/12/21 20:51:28;;;;;;;33.70;6.63;;;10.30;99.90;;;;;;10512411;28;20048;-73
2023/12/21 20:56:32;;;;;;;17.27;3.57;;;10.20;99.90;;;;;;10517300;28;20063;-73
2023/12/21 21:01:33;;;;;;;32.55;5.93;;;10.40;99.90;;;;;;10522133;28;20071;-71
2023/12/21 21:06:36;;;;;;;17.08;3.55;;;10.20;99.90;;;;;;10513171;28;20100;-74
2023/12/21 21:11:40;;;;;;;29.73;5.50;;;10.50;99.90;;;;;;10515794;28;20055;-72
2023/12/21 21:16:42;;;;;;;33.13;7.85;;;10.30;99.90;;;;;;10509944;28;20513;-74
2023/12/21 21:21:44;;;;;;;27.33;4.20;;;10.30;99.90;;;;;;10511294;28;20205;-74
2023/12/21 21:26:49;;;;;;;30.00;4.93;;;10.40;99.90;;;;;;10513397;28;20065;-73
2023/12/21 21:31:52;;;;;;;39.22;7.55;;;10.50;99.90;;;;;;10521800;28;20509;-74
2023/12/21 21:36:54;;;;;;;29.00;5.70;;;10.20;99.90;;;;;;10519959;28;20051;-73
2023/12/21 21:41:58;;;;;;;20.80;5.68;;;10.40;99.90;;;;;;10557850;27;20055;-73
2023/12/21 21:47:00;;;;;;;24.83;4.72;;;10.30;99.90;;;;;;10521621;28;20055;-72
2023/12/21 21:52:03;;;;;;;16.25;3.22;;;10.40;99.90;;;;;;10528389;28;20055;-74
2023/12/21 21:57:06;;;;;;;34.83;6.60;;;10.30;99.90;;;;;;10531697;28;20061;-73
2023/12/21 22:02:08;;;;;;;31.40;4.82;;;10.20;99.90;;;;;;10528139;28;20060;-72
2023/12/21 22:07:10;;;;;;;12.52;3.10;;;10.10;99.90;;;;;;10527041;28;20765;-73
2023/12/21 22:12:15;;;;;;;22.85;4.68;;;10.40;99.90;;;;;;10529058;28;20052;-75
2023/12/21 22:17:18;;;;;;;28.10;4.80;;;10.40;99.90;;;;;;10515123;28;20044;-73
2023/12/21 22:22:20;;;;;;;19.23;3.85;;;10.20;99.90;;;;;;10520327;28;20058;-72
2023/12/21 22:27:24;;;;;;;17.63;2.75;;;10.30;99.90;;;;;;10515941;28;20105;-74
2023/12/21 22:32:26;;;;;;;34.65;6.03;;;10.60;99.90;;;;;;10509728;28;20060;-72
2023/12/21 22:37:28;;;;;;;26.42;4.32;;;10.30;99.90;;;;;;10510299;28;20044;-73
2023/12/21 22:42:31;;;;;;;20.98;3.83;;;10.40;99.90;;;;;;10522618;28;20290;-71
2023/12/21 22:47:34;;;;;;;35.88;7.75;;;10.60;99.90;;;;;;10512527;28;20288;-73
2023/12/21 22:52:36;;;;;;;16.53;2.93;;;10.30;99.90;;;;;;10521731;28;20062;-73
2023/12/21 22:57:41;;;;;;;31.07;5.40;;;10.10;99.90;;;;;;10522520;28;20151;-72
2023/12/21 23:02:43;;;;;;;24.88;3.95;;;10.30;99.90;;;;;;10507204;28;20546;-74
2023/12/21 23:07:47;;;;;;;31.90;7.13;;;10.10;99.90;;;;;;10512974;28;20126;-73
2023/12/21 23:12:51;;;;;;;24.60;4.82;;;10.20;99.90;;;;;;10518659;28;20070;-71
2023/12/21 23:17:53;;;;;;;41.75;5.93;;;10.00;99.90;;;;;;10515866;28;20551;-73
2023/12/21 23:22:55;;;;;;;25.73;4.63;;;10.00;99.90;;;;;;10519557;28;20051;-71
2023/12/21 23:27:59;;;;;;;37.67;4.67;;;10.10;99.90;;;;;;10522193;28;20043;-74
2023/12/21 23:33:01;;;;;;;39.33;9.10;;;10.10;99.90;;;;;;10520354;28;20146;-74
2023/12/21 23:38:03;;;;;;;31.23;5.40;;;9.90;99.90;;;;;;10517938;28;20998;-74
2023/12/21 23:43:06;;;;;;;24.55;5.25;;;9.80;99.90;;;;;;10522099;28;20055;-70
2023/12/21 23:48:08;;;;;;;26.83;5.18;;;10.00;99.90;;;;;;10504682;28;20527;-72
2023/12/21 23:53:12;;;;;;;25.23;4.38;;;10.00;99.90;;;;;;10505628;28;20040;-72
2023/12/21 23:58:16;;;;;;;29.35;6.32;;;10.00;99.90;;;;;;10513682;28;20090;-72
